createdAt,value
2023-08-14T00:02:41.858Z,1.67
2023-08-14T00:05:45.485Z,1.60
2023-08-14T00:08:47.820Z,1.48
2023-08-14T00:11:50.054Z,1.45
2023-08-14T00:14:52.341Z,1.77
2023-08-14T00:17:54.676Z,1.58
2023-08-14T00:20:58.332Z,1.77
2023-08-14T00:24:00.631Z,1.70
2023-08-14T00:27:02.858Z,1.40
2023-08-14T00:30:06.359Z,1.85
2023-08-14T00:33:08.749Z,1.60
2023-08-14T00:36:12.765Z,1.80
2023-08-14T00:39:15.906Z,2.28
2023-08-14T00:42:18.592Z,2.03
2023-08-14T00:45:24.845Z,1.42
2023-08-14T00:48:32.562Z,1.77
2023-08-14T00:51:36.724Z,2.05
2023-08-14T00:54:39.064Z,1.50
2023-08-14T00:57:41.702Z,1.50
2023-08-14T01:00:44.967Z,1.73
2023-08-14T01:03:47.810Z,1.75
2023-08-14T01:06:51.580Z,2.08
2023-08-14T01:09:54.054Z,2.10
2023-08-14T01:13:02.223Z,1.95
2023-08-14T01:16:08.534Z,1.45
2023-08-14T01:19:20.179Z,1.88
2023-08-14T01:22:32.612Z,2.72
2023-08-14T01:25:38.683Z,1.95
2023-08-14T01:28:41.255Z,2.03
2023-08-14T01:31:43.506Z,1.67
2023-08-14T01:34:45.751Z,1.80
2023-08-14T01:38:04.448Z,1.50
2023-08-14T01:41:11.923Z,2.05
2023-08-14T01:44:17.622Z,2.10
2023-08-14T01:47:20.292Z,1.88
2023-08-14T01:50:24.664Z,2.15
2023-08-14T01:53:27.292Z,3.13
2023-08-14T01:56:30.872Z,1.83
2023-08-14T01:59:39.351Z,1.80
2023-08-14T02:02:42.130Z,2.10
2023-08-14T02:05:44.469Z,1.92
2023-08-14T02:08:46.816Z,2.08
2023-08-14T02:11:50.350Z,2.22
2023-08-14T02:14:52.915Z,1.77
2023-08-14T02:17:55.203Z,1.50
2023-08-14T02:20:57.581Z,2.00
2023-08-14T02:23:59.875Z,1.50
2023-08-14T02:27:03.585Z,2.33
2023-08-14T02:30:07.272Z,1.90
2023-08-14T02:33:10.413Z,1.65
2023-08-14T02:36:12.638Z,1.98
2023-08-14T02:39:15.264Z,1.80
2023-08-14T02:42:21.091Z,1.98
2023-08-14T02:45:23.676Z,1.85
2023-08-14T02:48:25.938Z,2.47
2023-08-14T02:51:31.280Z,1.75
2023-08-14T02:54:33.647Z,2.28
2023-08-14T02:57:37.263Z,2.20
2023-08-14T03:00:39.638Z,2.10
2023-08-14T03:03:41.999Z,2.10
2023-08-14T03:06:45.036Z,1.63
2023-08-14T03:09:47.487Z,1.98
2023-08-14T03:12:51.228Z,2.03
2023-08-14T03:15:53.579Z,2.03
2023-08-14T03:18:55.912Z,1.83
2023-08-14T03:21:58.381Z,2.50
2023-08-14T03:25:01.685Z,2.75
2023-08-14T03:28:06.454Z,2.60
2023-08-14T03:31:08.853Z,2.65
2023-08-14T03:34:12.085Z,2.50
2023-08-14T03:37:14.545Z,2.33
2023-08-14T03:40:16.961Z,2.88
2023-08-14T03:43:20.578Z,1.95
2023-08-14T03:46:22.978Z,2.55
2023-08-14T03:49:25.345Z,2.63
2023-08-14T03:52:28.523Z,2.75
2023-08-14T03:55:30.818Z,3.53
2023-08-14T03:58:34.540Z,3.08
2023-08-14T04:01:38.876Z,2.28
2023-08-14T04:04:41.108Z,2.17
2023-08-14T04:07:43.423Z,2.10
2023-08-14T04:10:45.721Z,2.38
2023-08-14T04:13:49.405Z,2.47
2023-08-14T04:16:52.753Z,2.10
2023-08-14T04:19:55.301Z,3.00
2023-08-14T04:22:58.296Z,2.95
2023-08-14T04:26:00.568Z,2.88
2023-08-14T04:29:07.522Z,2.28
2023-08-14T04:32:10.089Z,2.33
2023-08-14T04:35:12.606Z,2.97
2023-08-14T04:38:15.844Z,2.30
2023-08-14T04:41:24.550Z,2.65
2023-08-14T04:44:28.710Z,2.55
2023-08-14T04:47:31.430Z,2.58
2023-08-14T04:50:35.586Z,2.00
2023-08-14T04:53:37.942Z,2.35
2023-08-14T04:56:40.318Z,2.83
2023-08-14T04:59:45.296Z,2.20
2023-08-14T05:02:47.839Z,2.35
2023-08-14T05:05:53.633Z,2.15
2023-08-14T05:08:58.928Z,1.88
2023-08-14T05:12:02.737Z,2.42
2023-08-14T05:15:07.645Z,2.65
2023-08-14T05:18:09.937Z,2.42
2023-08-14T05:21:12.989Z,2.63
2023-08-14T05:24:28.344Z,3.10
2023-08-14T05:27:32.946Z,3.83
2023-08-14T05:30:36.804Z,3.35
2023-08-14T05:33:43.756Z,2.22
2023-08-14T05:36:53.753Z,2.38
2023-08-14T05:39:56.491Z,2.63
2023-08-14T05:43:06.016Z,2.55
2023-08-14T05:46:09.925Z,2.45
2023-08-14T05:49:12.358Z,2.83
2023-08-14T05:52:14.655Z,2.42
2023-08-14T05:55:16.952Z,2.42
2023-08-14T05:58:19.189Z,2.25
2023-08-14T06:01:22.844Z,2.55
2023-08-14T06:04:26.918Z,2.95
2023-08-14T06:07:29.430Z,2.40
2023-08-14T06:10:31.928Z,2.47
2023-08-14T06:13:34.323Z,2.70
2023-08-14T06:16:38.059Z,2.22
2023-08-14T06:19:40.459Z,2.20
2023-08-14T06:22:45.077Z,2.53
2023-08-14T06:25:47.496Z,3.42
2023-08-14T06:28:49.876Z,1.80
2023-08-14T06:32:10.184Z,2.38
2023-08-14T06:35:18.698Z,2.15
2023-08-14T06:38:21.330Z,2.15
2023-08-14T06:41:23.808Z,2.10
2023-08-14T06:44:26.130Z,2.42
2023-08-14T06:47:29.973Z,2.30
2023-08-14T06:50:32.366Z,2.28
2023-08-14T06:53:35.503Z,2.20
2023-08-14T06:56:37.795Z,2.50
2023-08-14T06:59:40.243Z,2.15
2023-08-14T07:02:48.571Z,1.92
2023-08-14T07:05:51.015Z,2.08
2023-08-14T07:08:53.461Z,2.70
2023-08-14T07:11:58.386Z,2.30
2023-08-14T07:15:01.873Z,1.50
2023-08-14T07:18:05.847Z,2.03
2023-08-14T07:21:08.284Z,1.88
2023-08-14T07:24:10.647Z,1.58
2023-08-14T07:27:13.656Z,2.00
2023-08-14T07:30:15.994Z,1.60
2023-08-14T07:33:19.720Z,1.88
2023-08-14T07:36:21.933Z,1.50
2023-08-14T07:39:24.429Z,1.50
2023-08-14T07:42:26.786Z,1.50
2023-08-14T07:45:29.004Z,1.90
2023-08-14T07:48:32.736Z,1.45
2023-08-14T07:51:39.442Z,1.60
2023-08-14T07:54:42.544Z,1.60
2023-08-14T07:57:47.062Z,1.63
2023-08-14T08:01:01.051Z,1.90
2023-08-14T08:04:06.239Z,2.03
2023-08-14T08:07:11.167Z,2.08
2023-08-14T08:10:19.636Z,1.60
2023-08-14T08:13:24.459Z,1.35
2023-08-14T08:16:27.009Z,1.20
2023-08-14T08:19:33.271Z,1.70
2023-08-14T08:22:35.699Z,1.30
2023-08-14T08:25:38.023Z,1.35
2023-08-14T08:28:40.962Z,1.40
2023-08-14T08:31:44.495Z,1.20
2023-08-14T08:34:53.030Z,1.20
2023-08-14T08:37:58.336Z,1.58
2023-08-14T08:41:03.013Z,1.00
2023-08-14T08:44:08.721Z,0.82
2023-08-14T08:47:11.872Z,1.02
2023-08-14T08:50:15.679Z,1.05
2023-08-14T08:53:19.632Z,0.95
2023-08-14T08:56:21.899Z,0.95
2023-08-14T08:59:24.529Z,0.80
2023-08-14T09:02:27.840Z,1.02
2023-08-14T09:05:35.058Z,0.90
2023-08-14T09:08:37.505Z,1.20
2023-08-14T09:11:40.036Z,1.10
2023-08-14T09:14:44.871Z,1.08
2023-08-14T09:17:47.576Z,1.33
2023-08-14T09:20:51.304Z,1.13
2023-08-14T09:23:54.808Z,0.90
2023-08-14T09:26:58.359Z,1.00
2023-08-14T09:30:06.294Z,1.17
2023-08-14T09:33:19.547Z,1.35
2023-08-14T09:36:34.087Z,1.30
2023-08-14T09:39:38.873Z,1.30
2023-08-14T09:42:50.053Z,1.05
2023-08-14T09:45:53.249Z,1.00
2023-08-14T09:48:56.692Z,1.30
2023-08-14T09:52:03.027Z,1.27
2023-08-14T09:55:11.664Z,1.33
2023-08-14T09:58:15.722Z,1.15
2023-08-14T10:01:34.937Z,1.30
2023-08-14T10:04:41.087Z,1.00
2023-08-14T10:11:44.242Z,1.30
2023-08-14T10:14:55.480Z,1.20
2023-08-14T10:18:16.526Z,1.13
2023-08-14T10:22:06.413Z,1.00
2023-08-14T10:25:20.572Z,1.42
2023-08-14T10:28:37.505Z,1.23
2023-08-14T10:31:44.018Z,1.30
2023-08-14T10:34:46.537Z,1.50
2023-08-14T10:38:08.277Z,1.20
2023-08-14T10:41:38.386Z,1.52
2023-08-14T10:44:46.561Z,1.40
2023-08-14T10:47:49.265Z,1.30
2023-08-14T10:50:59.034Z,1.40
2023-08-14T10:54:11.038Z,1.33
2023-08-14T10:57:14.662Z,1.38
2023-08-14T11:00:21.968Z,1.55
2023-08-14T11:03:24.552Z,1.20
2023-08-14T11:06:27.669Z,1.58
2023-08-14T11:09:37.410Z,1.80
2023-08-14T11:12:41.013Z,1.25
2023-08-14T11:15:44.447Z,1.40
2023-08-14T11:18:47.036Z,1.52
2023-08-14T11:21:50.018Z,1.40
2023-08-14T11:24:52.447Z,1.70
2023-08-14T11:27:59.562Z,1.30
2023-08-14T11:31:02.266Z,1.30
2023-08-14T11:34:05.896Z,1.67
2023-08-14T11:37:09.947Z,1.77
2023-08-14T11:40:16.877Z,2.00
2023-08-14T11:43:24.470Z,1.80
2023-08-14T11:46:27.224Z,1.70
2023-08-14T11:49:32.043Z,1.65
2023-08-14T11:52:35.162Z,1.33
2023-08-14T11:55:38.021Z,2.17
2023-08-14T11:58:43.160Z,1.77
2023-08-14T12:01:47.061Z,1.38
2023-08-14T12:04:53.233Z,1.63
2023-08-14T12:08:00.521Z,1.90
2023-08-14T12:11:02.969Z,1.75
2023-08-14T12:14:07.929Z,2.10
2023-08-14T12:17:17.669Z,1.50
2023-08-14T12:20:26.312Z,1.48
2023-08-14T12:23:37.405Z,1.80
2023-08-14T12:26:46.141Z,1.52
2023-08-14T12:29:59.389Z,1.90
2023-08-14T12:36:42.061Z,1.83
2023-08-14T12:39:45.804Z,1.55
2023-08-14T12:42:48.248Z,1.98
2023-08-14T12:45:51.888Z,1.83
2023-08-14T12:48:54.213Z,1.52
2023-08-14T12:52:00.432Z,1.52
2023-08-14T12:55:06.152Z,1.60
2023-08-14T13:01:23.896Z,1.55
2023-08-14T13:04:28.312Z,1.45
2023-08-14T13:07:32.883Z,1.80
2023-08-14T13:10:35.187Z,1.75
2023-08-14T13:13:37.594Z,1.30
2023-08-14T13:16:41.491Z,1.73
2023-08-14T13:19:46.855Z,2.03
2023-08-14T13:22:50.833Z,2.22
2023-08-14T13:25:53.161Z,2.28
2023-08-14T13:28:55.664Z,2.10
2023-08-14T13:31:59.353Z,1.70
2023-08-14T13:35:01.701Z,1.55
2023-08-14T13:38:04.094Z,1.70
2023-08-14T13:41:06.611Z,1.65
2023-08-14T13:44:09.026Z,1.90
2023-08-14T13:47:12.700Z,1.65
2023-08-14T13:50:22.938Z,1.88
2023-08-14T13:53:32.995Z,1.23
2023-08-14T13:56:35.392Z,1.90
2023-08-14T13:59:37.867Z,1.83
2023-08-14T14:02:41.545Z,2.08
2023-08-14T14:05:43.873Z,1.58
2023-08-14T14:08:48.019Z,2.25
2023-08-14T14:11:50.475Z,2.50
2023-08-14T14:14:53.090Z,1.70
2023-08-14T14:17:58.127Z,1.95
2023-08-14T14:21:00.538Z,2.15
2023-08-14T14:24:03.621Z,2.08
2023-08-14T14:27:08.715Z,1.55
2023-08-14T14:30:12.405Z,1.77
2023-08-14T14:33:16.136Z,2.03
2023-08-14T14:36:18.453Z,2.40
2023-08-14T14:39:21.959Z,2.13
2023-08-14T14:42:25.110Z,1.90
2023-08-14T14:48:36.229Z,2.33
2023-08-14T14:51:38.634Z,2.50
2023-08-14T14:54:40.933Z,2.17
2023-08-14T14:57:43.280Z,2.13
2023-08-14T15:00:46.325Z,2.30
2023-08-14T15:03:50.100Z,2.63
2023-08-14T15:06:52.482Z,2.08
2023-08-14T15:09:54.813Z,2.03
2023-08-14T15:12:57.172Z,2.20
2023-08-14T15:15:59.706Z,1.85
2023-08-14T15:19:03.401Z,1.85
2023-08-14T15:22:05.734Z,2.33
2023-08-14T15:25:12.602Z,1.88
2023-08-14T15:28:14.902Z,2.33
2023-08-14T15:31:17.234Z,2.30
2023-08-14T15:34:21.081Z,2.05
2023-08-14T15:37:23.681Z,2.47
2023-08-14T15:40:26.054Z,1.90
2023-08-14T15:43:28.537Z,2.58
2023-08-14T15:46:30.902Z,1.65
2023-08-14T15:49:34.633Z,2.10
2023-08-14T15:52:36.941Z,1.98
2023-08-14T15:55:40.028Z,2.33
2023-08-14T15:58:43.669Z,1.92
2023-08-14T16:01:47.595Z,2.45
2023-08-14T16:04:51.779Z,2.50
2023-08-14T16:07:54.076Z,2.17
2023-08-14T16:10:56.293Z,2.47
2023-08-14T16:13:58.548Z,2.33
2023-08-14T16:17:00.805Z,2.05
2023-08-14T16:20:05.457Z,1.98
2023-08-14T16:23:07.752Z,2.05
2023-08-14T16:26:10.121Z,2.33
2023-08-14T16:29:12.683Z,2.60
2023-08-14T16:32:15.928Z,2.42
2023-08-14T16:35:19.670Z,2.55
2023-08-14T16:38:22.031Z,3.13
2023-08-14T16:41:24.321Z,2.60
2023-08-14T16:44:26.624Z,2.25
2023-08-14T16:47:29.287Z,2.83
2023-08-14T16:50:33.102Z,2.60
2023-08-14T16:53:35.421Z,2.72
2023-08-14T16:56:39.630Z,3.17
2023-08-14T16:59:41.972Z,2.60
2023-08-14T17:02:45.694Z,2.65
2023-08-14T17:05:49.324Z,2.20
2023-08-14T17:08:51.607Z,2.15
2023-08-14T17:11:53.926Z,2.65
2023-08-14T17:14:57.984Z,2.00
2023-08-14T17:18:00.316Z,2.50
2023-08-14T17:21:04.284Z,2.47
2023-08-14T17:24:07.653Z,2.70
2023-08-14T17:27:11.236Z,2.30
2023-08-14T17:30:14.046Z,2.90
2023-08-14T17:33:16.390Z,2.45
2023-08-14T17:36:20.098Z,2.40
2023-08-14T17:39:22.326Z,2.47
2023-08-14T17:42:24.647Z,2.63
2023-08-14T17:45:27.002Z,2.80
2023-08-14T17:48:30.378Z,2.28
2023-08-14T17:51:33.961Z,2.20
2023-08-14T17:54:36.239Z,2.30
2023-08-14T17:57:38.540Z,2.05
2023-08-14T18:00:45.875Z,1.75
2023-08-14T18:03:49.271Z,2.72
2023-08-14T18:06:53.104Z,2.35
2023-08-14T18:09:55.906Z,2.10
2023-08-14T18:12:58.225Z,2.35
2023-08-14T18:16:00.764Z,1.88
2023-08-14T18:19:23.123Z,2.33
2023-08-14T18:22:26.881Z,2.17
2023-08-14T18:25:29.168Z,2.30
2023-08-14T18:28:31.424Z,2.38
2023-08-14T18:31:34.105Z,2.00
2023-08-14T18:34:36.464Z,2.30
2023-08-14T18:37:40.799Z,2.75
2023-08-14T18:40:45.065Z,2.92
2023-08-14T18:43:49.632Z,3.08
2023-08-14T18:46:51.922Z,2.58
2023-08-14T18:49:54.219Z,3.08
2023-08-14T18:52:58.474Z,3.03
2023-08-14T18:56:03.045Z,3.40
2023-08-14T18:59:07.103Z,2.97
2023-08-14T19:02:10.131Z,3.33
2023-08-14T19:05:12.765Z,3.28
2023-08-14T19:08:16.466Z,3.10
2023-08-14T19:11:19.041Z,2.90
2023-08-14T19:14:21.658Z,3.40
2023-08-14T19:17:23.937Z,3.13
2023-08-14T19:20:26.288Z,2.90
2023-08-14T19:23:32.804Z,2.78
2023-08-14T19:26:35.317Z,2.92
2023-08-14T19:29:38.360Z,2.92
2023-08-14T19:32:40.655Z,2.70
2023-08-14T19:35:43.926Z,2.55
2023-08-14T19:38:49.610Z,3.35
2023-08-14T19:41:52.003Z,3.38
2023-08-14T19:44:54.394Z,4.40
2023-08-14T19:47:56.720Z,4.03
2023-08-14T19:50:58.971Z,3.38
2023-08-14T19:54:03.828Z,3.28
2023-08-14T19:57:06.144Z,2.80
2023-08-14T20:00:10.844Z,2.92
2023-08-14T20:03:15.305Z,3.60
2023-08-14T20:06:18.784Z,4.03
2023-08-14T20:09:22.366Z,3.53
2023-08-14T20:12:25.979Z,3.33
2023-08-14T20:15:28.968Z,3.38
2023-08-14T20:18:31.233Z,4.47
2023-08-14T20:21:33.480Z,3.35
2023-08-14T20:24:37.132Z,3.25
2023-08-14T20:27:39.418Z,3.72
2023-08-14T20:30:43.266Z,3.20
2023-08-14T20:33:46.817Z,4.00
2023-08-14T20:36:50.725Z,3.35
2023-08-14T20:39:54.315Z,3.35
2023-08-14T20:42:56.564Z,4.22
2023-08-14T20:45:58.913Z,3.10
2023-08-14T20:49:01.259Z,2.90
2023-08-14T20:52:04.396Z,2.92
2023-08-14T20:55:09.022Z,4.00
2023-08-14T20:58:11.747Z,3.20
2023-08-14T21:01:14.358Z,3.72
2023-08-14T21:04:16.726Z,3.70
2023-08-14T21:07:19.679Z,3.72
2023-08-14T21:10:23.413Z,4.32
2023-08-14T21:13:26.012Z,3.60
2023-08-14T21:16:29.147Z,5.70
2023-08-14T21:19:31.401Z,4.30
2023-08-14T21:22:33.676Z,3.67
2023-08-14T21:25:46.537Z,4.45
2023-08-14T21:28:49.343Z,4.85
2023-08-14T21:31:51.705Z,4.45
2023-08-14T21:34:54.039Z,3.85
2023-08-14T21:37:56.555Z,4.50
2023-08-14T21:41:03.417Z,4.43
2023-08-14T21:44:06.046Z,4.68
2023-08-14T21:47:08.391Z,5.20
2023-08-14T21:50:10.872Z,3.83
2023-08-14T21:53:13.127Z,4.78
2023-08-14T21:56:16.790Z,4.65
2023-08-14T21:59:19.062Z,4.82
2023-08-14T22:02:21.363Z,4.20
2023-08-14T22:05:23.809Z,3.90
2023-08-14T22:08:26.630Z,4.65
2023-08-14T22:11:32.262Z,4.22
2023-08-14T22:14:34.558Z,4.28
2023-08-14T22:17:37.463Z,4.05
2023-08-14T22:20:40.602Z,3.65
2023-08-14T22:23:45.135Z,4.20
2023-08-14T22:26:48.743Z,4.63
2023-08-14T22:29:50.945Z,4.00
2023-08-14T22:32:53.252Z,4.45
2023-08-14T22:35:56.180Z,4.85
2023-08-14T22:38:58.504Z,3.70
2023-08-14T22:42:02.108Z,4.57
2023-08-14T22:45:05.647Z,4.50
2023-08-14T22:48:08.105Z,3.72
2023-08-14T22:51:10.308Z,4.20
2023-08-14T22:54:12.597Z,4.05
2023-08-14T22:57:16.242Z,4.05
2023-08-14T23:00:18.799Z,4.10
2023-08-14T23:03:20.990Z,4.18
2023-08-14T23:06:23.506Z,3.90
2023-08-14T23:09:26.834Z,3.75
2023-08-14T23:12:33.453Z,3.90
2023-08-14T23:15:35.909Z,3.60
2023-08-14T23:18:41.776Z,3.47
2023-08-14T23:21:44.821Z,3.45
2023-08-14T23:24:47.124Z,3.92
2023-08-14T23:27:50.760Z,5.25
2023-08-14T23:30:53.067Z,5.05
2023-08-14T23:33:55.350Z,5.32
2023-08-14T23:36:57.600Z,5.10
2023-08-14T23:39:59.882Z,5.72
2023-08-14T23:43:04.392Z,5.78
2023-08-14T23:46:06.673Z,5.25
2023-08-14T23:49:08.939Z,5.40
2023-08-14T23:52:11.174Z,5.22
2023-08-14T23:55:13.453Z,4.97
2023-08-14T23:58:17.035Z,4.43
